Time;durP1;ratioP1;P1;durP2;ratioP2;P2;SDS_P1;SDS_P2;PMS_P1;PMS_P2;Temp;Humidity;BMP_temperature;BMP_pressure;BME280_temperature;BME280_humidity;BME280_pressure;Samples;Min_cycle;Max_cycle;Signal;HPM_P1;HPM_P2
2022/11/26 00:02:27;;;;;;;24.98;6.32;;;;;;;;;;5062726;28;20119;-65
2022/11/26 00:04:54;;;;;;;15.00;6.57;;;5.30;99.90;;;;;;5062441;28;20044;-65
2022/11/26 00:07:21;;;;;;;17.48;5.80;;;;;;;;;;5066767;28;20097;-65
2022/11/26 00:09:51;;;;;;;20.40;6.80;;;5.40;99.90;;;;;;5051409;28;20051;-65
2022/11/26 00:12:19;;;;;;;24.38;6.20;;;;;;;;;;5075422;28;20059;-65
2022/11/26 00:14:46;;;;;;;20.60;5.72;;;5.60;99.90;;;;;;5066089;28;20052;-65
2022/11/26 00:17:12;;;;;;;16.75;6.05;;;;;;;;;;5073801;28;20535;-65
2022/11/26 00:19:39;;;;;;;16.75;6.28;;;;;;;;;;5065093;28;20048;-65
2022/11/26 00:22:05;;;;;;;17.77;5.50;;;5.70;99.90;;;;;;5072911;28;20032;-65
2022/11/26 00:24:31;;;;;;;22.25;6.45;;;5.70;99.90;;;;;;5070895;28;20036;-65
2022/11/26 00:26:58;;;;;;;22.38;6.07;;;5.80;99.90;;;;;;5070644;28;20079;-65
2022/11/26 00:29:25;;;;;;;16.88;5.85;;;;;;;;;;5069897;28;20047;-65
2022/11/26 00:31:51;;;;;;;14.13;6.10;;;;;;;;;;5071116;28;20036;-65
2022/11/26 00:34:17;;;;;;;20.38;6.30;;;;;;;;;;5070839;28;20072;-65
2022/11/26 00:36:43;;;;;;;19.13;5.75;;;;;;;;;;5057482;28;20079;-65
2022/11/26 00:39:11;;;;;;;21.02;5.35;;;;;;;;;;5069319;28;20036;-65
2022/11/26 00:41:38;;;;;;;17.58;5.68;;;6.40;99.90;;;;;;5075453;28;20040;-65
2022/11/26 00:44:24;;;;;;;20.83;6.55;;;5.80;99.90;;;;;;5058850;28;20060;-65
2022/11/26 00:46:50;;;;;;;19.63;5.75;;;;;;;;;;5063237;28;20055;-65
2022/11/26 00:49:17;;;;;;;13.73;5.57;;;5.80;99.90;;;;;;5065525;28;20040;-65
2022/11/26 00:51:44;;;;;;;14.77;5.18;;;5.70;99.90;;;;;;5067104;28;20386;-64
2022/11/26 00:54:13;;;;;;;18.33;5.45;;;;;;;;;;5054332;28;20037;-65
2022/11/26 00:56:39;;;;;;;16.88;5.47;;;;;;;;;;5067832;28;20044;-65
2022/11/26 00:59:05;;;;;;;14.80;6.07;;;;;;;;;;5071967;28;20048;-65
2022/11/26 01:01:31;;;;;;;21.38;6.40;;;;;;;;;;5062513;28;20040;-65
2022/11/26 01:03:58;;;;;;;19.95;5.38;;;;;;;;;;5077902;28;20041;-65
2022/11/26 01:06:36;;;;;;;18.48;6.55;;;5.60;99.90;;;;;;5067088;28;20040;-65
2022/11/26 01:09:03;;;;;;;13.93;4.63;;;;;;;;;;5059372;28;20398;-65
2022/11/26 01:11:29;;;;;;;12.38;5.10;;;;;;;;;;5076146;28;20071;-65
2022/11/26 01:13:55;;;;;;;14.60;5.60;;;;;;;;;;5063221;28;20458;-65
2022/11/26 01:16:28;;;;;;;19.95;5.65;;;5.90;99.90;;;;;;5072844;28;20063;-65
2022/11/26 01:18:55;;;;;;;21.60;5.80;;;;;;;;;;5058101;28;20032;-65
2022/11/26 01:21:25;;;;;;;19.30;6.43;;;;;;;;;;5075139;28;20078;-65
2022/11/26 01:23:51;;;;;;;16.73;5.18;;;5.70;99.90;;;;;;5079299;28;20115;-63
2022/11/26 01:26:21;;;;;;;19.38;5.75;;;;;;;;;;5062831;28;20460;-63
2022/11/26 01:28:47;;;;;;;18.50;5.35;;;;;;;;;;5069097;28;20044;-63
2022/11/26 01:31:14;;;;;;;19.23;4.75;;;;;;;;;;5076270;28;20024;-64
2022/11/26 01:33:40;;;;;;;16.25;5.50;;;5.70;99.90;;;;;;5068599;28;20537;-64
2022/11/26 01:36:17;;;;;;;24.92;6.40;;;;;;;;;;5066322;28;20112;-64
2022/11/26 01:38:43;;;;;;;16.90;5.80;;;;;;;;;;5059212;28;20402;-64
2022/11/26 01:41:12;;;;;;;17.98;5.95;;;;;;;;;;5074157;28;20037;-64
2022/11/26 01:43:42;;;;;;;16.23;5.05;;;;;;;;;;5066872;28;20040;-64
2022/11/26 01:46:14;;;;;;;25.27;6.45;;;5.80;99.90;;;;;;5066747;28;20490;-64
2022/11/26 01:48:40;;;;;;;20.48;5.63;;;;;;;;;;5061637;28;20032;-64
2022/11/26 01:51:08;;;;;;;17.98;5.75;;;5.60;99.90;;;;;;5060100;28;20108;-64
2022/11/26 01:53:43;;;;;;;21.27;5.32;;;;;;;;;;5065285;28;20035;-64
2022/11/26 01:56:25;;;;;;;19.63;5.50;;;4.60;99.90;;;;;;5070053;28;20391;-64
2022/11/26 01:58:53;;;;;;;17.15;5.15;;;;;;;;;;5072654;28;20482;-64
2022/11/26 02:01:19;;;;;;;17.15;5.53;;;;;;;;;;5066624;28;20121;-64
2022/11/26 02:04:07;;;;;;;15.70;5.82;;;4.40;99.90;;;;;;5078258;28;20063;-64
2022/11/26 02:06:33;;;;;;;15.82;5.80;;;;;;;;;;5067551;28;20037;-64
2022/11/26 02:09:01;;;;;;;20.67;5.53;;;;;;;;;;5071346;28;20594;-64
2022/11/26 02:11:27;;;;;;;12.63;5.35;;;4.80;99.90;;;;;;5082531;28;20035;-64
2022/11/26 02:14:00;;;;;;;21.17;5.95;;;;;;;;;;5054802;28;20032;-64
2022/11/26 02:16:48;;;;;;;24.27;6.88;;;;;;;;;;5056723;28;20029;-64
2022/11/26 02:19:14;;;;;;;20.08;6.50;;;;;;;;;;5054364;28;20072;-64
2022/11/26 02:21:41;;;;;;;23.42;7.03;;;;;;;;;;5067569;28;20072;-64
2022/11/26 02:24:29;;;;;;;16.63;6.18;;;;;;;;;;5065170;28;20043;-64
2022/11/26 02:26:57;;;;;;;17.38;5.78;;;4.70;99.90;;;;;;5067017;28;20111;-64
2022/11/26 02:29:38;;;;;;;20.40;6.93;;;5.40;99.90;;;;;;5058271;28;20033;-64
2022/11/26 02:32:09;;;;;;;15.20;6.35;;;;;;;;;;5060149;28;20033;-64
2022/11/26 02:34:43;;;;;;;26.90;8.20;;;;;;;;;;5073553;28;20075;-64
2022/11/26 02:37:19;;;;;;;20.70;7.67;;;4.70;99.90;;;;;;5056138;28;20048;-64
2022/11/26 02:39:46;;;;;;;17.73;6.20;;;;;;;;;;5074992;28;20775;-64
2022/11/26 02:42:41;;;;;;;23.15;8.05;;;5.10;99.90;;;;;;5070341;28;20041;-64
2022/11/26 02:45:06;;;;;;;24.40;6.82;;;;;;;;;;5041429;28;20048;-64
2022/11/26 02:47:34;;;;;;;23.73;7.20;;;5.70;99.90;;;;;;5066411;28;20033;-64
2022/11/26 02:50:03;;;;;;;24.65;7.10;;;;;;;;;;5062651;28;20040;-64
2022/11/26 02:52:29;;;;;;;22.33;6.60;;;;;;;;;;5074130;28;20091;-64
2022/11/26 02:54:56;;;;;;;23.55;7.65;;;5.10;99.90;;;;;;5068830;28;20040;-64
2022/11/26 02:57:24;;;;;;;22.40;7.03;;;;;;;;;;5064907;28;20037;-64
2022/11/26 02:59:50;;;;;;;23.95;8.00;;;5.20;99.90;;;;;;5058903;28;20037;-64
2022/11/26 03:02:27;;;;;;;20.02;7.03;;;4.70;99.90;;;;;;5063807;28;20094;-64
2022/11/26 03:04:55;;;;;;;21.92;8.38;;;;;;;;;;5073638;28;20047;-64
2022/11/26 03:07:21;;;;;;;21.15;8.23;;;;;;;;;;5071837;28;20045;-64
2022/11/26 03:09:50;;;;;;;21.52;7.07;;;;;;;;;;5076418;28;20044;-64
2022/11/26 03:12:16;;;;;;;16.33;6.65;;;;;;;;;;5070747;28;20040;-64
2022/11/26 03:14:42;;;;;;;25.70;8.27;;;;;;;;;;5068698;28;20299;-64
2022/11/26 03:17:08;;;;;;;25.40;7.45;;;;;;;;;;5090378;22;20413;-64
2022/11/26 03:19:34;;;;;;;20.77;8.02;;;5.20;99.90;;;;;;5049041;28;20040;-64
2022/11/26 03:21:59;;;;;;;30.83;7.43;;;5.20;99.90;;;;;;5051424;28;20037;-64
2022/11/26 03:24:25;;;;;;;19.17;7.47;;;;;;;;;;5051801;28;20053;-64
2022/11/26 03:26:51;;;;;;;24.48;8.00;;;;;;;;;;5050839;28;20045;-64
2022/11/26 03:29:17;;;;;;;19.98;8.00;;;;;;;;;;5051418;28;20482;-64
2022/11/26 03:31:43;;;;;;;28.65;8.23;;;;;;;;;;5051579;28;20068;-64
2022/11/26 03:34:09;;;;;;;23.70;7.65;;;;;;;;;;5050533;28;20145;-64
2022/11/26 03:36:35;;;;;;;21.77;8.90;;;5.20;99.90;;;;;;5051226;28;20033;-64
2022/11/26 03:39:00;;;;;;;30.40;9.55;;;5.30;99.90;;;;;;5050807;28;20029;-64
2022/11/26 03:41:26;;;;;;;17.73;7.60;;;;;;;;;;5058486;28;20029;-64
2022/11/26 03:43:52;;;;;;;23.27;9.07;;;;;;;;;;5031991;28;20575;-64
2022/11/26 03:46:19;;;;;;;22.40;8.85;;;;;;;;;;5033584;28;20033;-64
2022/11/26 03:48:45;;;;;;;30.27;9.48;;;;;;;;;;5049870;28;20168;-64
2022/11/26 03:51:11;;;;;;;20.08;8.88;;;;;;;;;;5033038;28;20075;-64
2022/11/26 03:53:36;;;;;;;28.67;8.68;;;5.50;99.90;;;;;;5050980;28;20045;-64
2022/11/26 03:56:02;;;;;;;27.48;8.65;;;5.50;99.90;;;;;;5050583;28;20410;-64
2022/11/26 03:58:28;;;;;;;20.55;8.13;;;;;;;;;;5050344;28;20037;-64
2022/11/26 04:00:54;;;;;;;25.60;8.63;;;;;;;;;;5050923;28;20407;-64
2022/11/26 04:03:20;;;;;;;27.80;8.20;;;;;;;;;;5032931;28;20045;-64
2022/11/26 04:05:46;;;;;;;22.02;8.90;;;;;;;;;;5056563;28;20048;-64
2022/11/26 04:08:12;;;;;;;32.47;10.07;;;;;;;;;;5059095;28;20060;-64
2022/11/26 04:10:38;;;;;;;25.83;8.45;;;;;;;;;;5050602;28;20037;-64
2022/11/26 04:13:03;;;;;;;26.67;8.90;;;5.60;99.90;;;;;;5050730;28;20048;-64
2022/11/26 04:15:30;;;;;;;19.48;8.63;;;5.70;99.90;;;;;;5058282;28;20032;-64
2022/11/26 04:17:55;;;;;;;26.25;8.63;;;5.80;99.90;;;;;;5049872;28;20040;-64
2022/11/26 04:20:21;;;;;;;21.90;9.23;;;;;;;;;;5058532;28;20082;-64
2022/11/26 04:22:47;;;;;;;25.42;9.50;;;;;;;;;;5050534;28;20037;-64
2022/11/26 04:25:13;;;;;;;29.52;9.90;;;;;;;;;;5050178;28;20033;-64
2022/11/26 04:27:39;;;;;;;19.08;7.50;;;;;;;;;;5049939;28;20490;-64
2022/11/26 04:30:08;;;;;;;27.55;10.40;;;;;;;;;;5050557;28;20041;-62
2022/11/26 04:32:35;;;;;;;30.88;10.40;;;;;;;;;;5052096;28;20505;-62
2022/11/26 04:35:01;;;;;;;24.98;8.98;;;5.70;99.90;;;;;;5050319;28;20520;-62
2022/11/26 04:37:27;;;;;;;29.73;9.65;;;5.70;99.90;;;;;;5048180;28;20055;-62
2022/11/26 04:39:53;;;;;;;24.77;10.73;;;;;;;;;;5049955;28;20029;-62
2022/11/26 04:42:19;;;;;;;21.33;10.10;;;;;;;;;;5050427;28;20029;-62
2022/11/26 04:44:45;;;;;;;25.52;9.52;;;;;;;;;;5049310;28;20047;-62
2022/11/26 04:47:11;;;;;;;27.38;9.88;;;;;;;;;;5048373;28;20274;-62
2022/11/26 04:49:37;;;;;;;27.40;10.25;;;;;;;;;;5048727;28;20080;-63
2022/11/26 04:52:02;;;;;;;24.75;9.25;;;5.60;99.90;;;;;;5050239;28;20120;-62
2022/11/26 04:54:28;;;;;;;23.35;10.18;;;5.60;99.90;;;;;;5048984;28;20123;-62
2022/11/26 04:56:54;;;;;;;27.13;9.68;;;;;;;;;;5049670;28;20048;-62
2022/11/26 04:59:20;;;;;;;32.70;10.32;;;;;;;;;;5049754;28;20072;-62
2022/11/26 05:01:46;;;;;;;22.58;9.88;;;;;;;;;;5050046;28;20039;-62
2022/11/26 05:04:12;;;;;;;24.98;10.30;;;;;;;;;;5055225;28;20621;-62
2022/11/26 05:06:38;;;;;;;29.30;11.00;;;;;;;;;;5049800;28;20116;-62
2022/11/26 05:09:04;;;;;;;36.33;11.05;;;5.40;99.90;;;;;;5048315;28;20041;-62
2022/11/26 05:11:29;;;;;;;28.45;10.48;;;5.50;99.90;;;;;;5050090;28;20474;-62
2022/11/26 05:13:55;;;;;;;26.98;10.38;;;;;;;;;;5059115;28;20029;-64
2022/11/26 05:16:21;;;;;;;23.02;9.73;;;;;;;;;;5049440;28;20045;-62
2022/11/26 05:18:47;;;;;;;22.45;10.20;;;;;;;;;;5048985;28;20032;-62
2022/11/26 05:21:13;;;;;;;25.63;10.02;;;;;;;;;;5048052;28;20032;-62
2022/11/26 05:23:39;;;;;;;31.27;10.30;;;;;;;;;;5051036;28;20510;-62
2022/11/26 05:26:05;;;;;;;29.23;10.57;;;;;;;;;;5056989;28;20041;-62
2022/11/26 05:28:31;;;;;;;26.38;10.07;;;5.50;99.90;;;;;;5049481;28;20072;-62
2022/11/26 05:30:58;;;;;;;27.95;10.05;;;;;;;;;;5058852;28;20424;-62
2022/11/26 05:33:24;;;;;;;29.10;11.45;;;;;;;;;;5049840;28;20048;-62
2022/11/26 05:35:50;;;;;;;27.55;9.95;;;;;;;;;;5049113;28;20033;-62
2022/11/26 05:38:16;;;;;;;22.65;10.32;;;;;;;;;;5049258;28;20037;-62
2022/11/26 05:40:42;;;;;;;28.58;11.50;;;;;;;;;;5049588;28;20383;-62
2022/11/26 05:43:08;;;;;;;25.35;11.00;;;5.70;99.90;;;;;;5049543;28;20479;-62
2022/11/26 05:45:34;;;;;;;34.83;11.68;;;;;;;;;;5049322;28;20037;-62
2022/11/26 05:48:00;;;;;;;26.30;11.02;;;5.70;99.90;;;;;;5048941;28;20126;-62
2022/11/26 05:50:26;;;;;;;23.63;10.13;;;;;;;;;;5049911;28;20029;-62
2022/11/26 05:52:52;;;;;;;23.88;10.13;;;;;;;;;;5048853;28;20516;-62
2022/11/26 05:55:18;;;;;;;33.40;11.40;;;;;;;;;;5053808;28;20035;-62
2022/11/26 05:57:44;;;;;;;28.60;11.90;;;;;;;;;;5033385;28;20052;-62
2022/11/26 06:00:11;;;;;;;27.27;10.30;;;6.10;99.90;;;;;;5053363;28;20498;-62
2022/11/26 06:02:37;;;;;;;28.35;11.18;;;5.70;99.90;;;;;;5052173;28;20120;-62
2022/11/26 06:05:03;;;;;;;32.38;10.60;;;5.50;99.90;;;;;;5053815;28;20112;-62
2022/11/26 06:07:29;;;;;;;32.10;11.77;;;;;;;;;;5052432;28;20044;-62
2022/11/26 06:09:55;;;;;;;31.83;12.18;;;;;;;;;;5052956;28;20037;-64
2022/11/26 06:12:21;;;;;;;26.70;10.65;;;;;;;;;;5053080;28;20441;-63
2022/11/26 06:14:47;;;;;;;30.92;10.98;;;;;;;;;;5052607;28;20090;-64
2022/11/26 06:17:13;;;;;;;21.15;10.32;;;;;;;;;;5052268;28;20041;-64
2022/11/26 06:19:39;;;;;;;29.67;11.73;;;;;;;;;;5052465;28;20048;-64
2022/11/26 06:22:05;;;;;;;30.15;11.35;;;5.50;99.90;;;;;;5034661;28;20044;-64
2022/11/26 06:24:31;;;;;;;20.52;10.77;;;5.20;99.90;;;;;;5052781;28;20575;-64
2022/11/26 06:26:56;;;;;;;33.05;11.75;;;5.40;99.90;;;;;;5036873;28;20064;-64
2022/11/26 06:29:22;;;;;;;26.27;10.90;;;;;;;;;;5061013;28;20055;-64
2022/11/26 06:31:48;;;;;;;29.00;11.43;;;;;;;;;;5051699;28;20077;-64
2022/11/26 06:34:15;;;;;;;35.10;12.05;;;;;;;;;;5052322;28;20040;-62
2022/11/26 06:36:41;;;;;;;32.67;12.65;;;;;;;;;;5052251;28;20051;-62
2022/11/26 06:39:07;;;;;;;29.60;11.75;;;;;;;;;;5051950;28;20512;-62
2022/11/26 06:41:33;;;;;;;30.98;11.68;;;;;;;;;;5035048;28;20033;-62
2022/11/26 06:43:59;;;;;;;27.05;11.88;;;;;;;;;;5055123;28;20033;-62
2022/11/26 06:46:24;;;;;;;27.42;11.07;;;5.50;99.90;;;;;;5048963;28;20033;-62
2022/11/26 06:48:51;;;;;;;30.27;11.63;;;;;;;;;;5044778;28;20040;-62
2022/11/26 06:51:19;;;;;;;32.45;11.27;;;5.40;99.90;;;;;;5021778;28;20034;-62
2022/11/26 06:53:45;;;;;;;28.92;11.35;;;;;;;;;;5041871;28;20045;-62
2022/11/26 06:56:12;;;;;;;36.85;12.68;;;;;;;;;;5016144;28;20042;-62
2022/11/26 06:58:38;;;;;;;25.95;12.57;;;;;;;;;;5033900;28;20044;-62
2022/11/26 07:01:12;;;;;;;33.20;12.85;;;;;;;;;;5034463;28;20038;-62
2022/11/26 07:03:38;;;;;;;33.88;12.43;;;;;;;;;;5031231;28;20410;-64
2022/11/26 07:06:03;;;;;;;32.75;12.68;;;5.20;99.90;;;;;;5037192;28;20038;-64
2022/11/26 07:08:30;;;;;;;29.20;12.48;;;;;;;;;;5033711;28;20061;-64
2022/11/26 07:10:59;;;;;;;35.90;14.20;;;5.20;99.90;;;;;;5035601;28;20513;-64
2022/11/26 07:13:25;;;;;;;33.65;14.20;;;;;;;;;;5038009;28;20037;-63
2022/11/26 07:15:51;;;;;;;38.58;13.88;;;;;;;;;;5043667;28;20044;-63
2022/11/26 07:18:17;;;;;;;26.48;12.75;;;5.30;99.90;;;;;;5047195;28;20060;-64
2022/11/26 07:20:43;;;;;;;40.83;13.23;;;5.30;99.90;;;;;;5042419;28;20422;-64
2022/11/26 07:23:09;;;;;;;34.00;12.73;;;;;;;;;;5029204;28;20029;-64
2022/11/26 07:25:35;;;;;;;34.70;13.95;;;5.40;99.90;;;;;;5049511;28;20086;-64
2022/11/26 07:28:01;;;;;;;29.83;12.70;;;;;;;;;;5058862;28;20559;-64
2022/11/26 07:30:27;;;;;;;34.45;13.60;;;5.30;99.90;;;;;;5051309;28;20286;-62
2022/11/26 07:32:53;;;;;;;31.85;14.50;;;;;;;;;;5042316;28;20073;-62
2022/11/26 07:35:19;;;;;;;43.03;17.23;;;;;;;;;;5051472;28;20033;-62
2022/11/26 07:37:45;;;;;;;37.08;15.27;;;;;;;;;;5050545;28;20114;-62
2022/11/26 07:40:11;;;;;;;38.03;14.43;;;;;;;;;;5033860;28;20032;-62
2022/11/26 07:42:37;;;;;;;39.00;15.15;;;5.40;99.90;;;;;;5050074;28;20036;-64
2022/11/26 07:45:03;;;;;;;40.33;15.27;;;5.50;99.90;;;;;;5051242;28;20395;-64
2022/11/26 07:47:29;;;;;;;34.90;13.77;;;5.60;99.90;;;;;;5049727;28;20047;-64
2022/11/26 07:49:54;;;;;;;28.42;14.77;;;5.60;99.90;;;;;;5051251;28;20449;-64
2022/11/26 07:52:20;;;;;;;35.22;14.20;;;;;;;;;;5051042;28;20037;-64
2022/11/26 07:54:46;;;;;;;44.33;16.77;;;;;;;;;;5063542;28;20091;-64
2022/11/26 07:57:12;;;;;;;31.85;14.45;;;5.70;99.90;;;;;;5032908;28;20131;-62
2022/11/26 07:59:37;;;;;;;40.75;16.52;;;5.70;99.90;;;;;;5050892;28;20120;-62
2022/11/26 08:02:03;;;;;;;33.38;13.75;;;;;;;;;;5032154;28;20091;-62
2022/11/26 08:04:29;;;;;;;33.70;14.23;;;;;;;;;;5050875;28;20096;-62
2022/11/26 08:06:55;;;;;;;34.28;14.55;;;;;;;;;;5050575;28;20037;-62
2022/11/26 08:09:21;;;;;;;35.70;14.73;;;;;;;;;;5050410;28;20418;-62
2022/11/26 08:11:47;;;;;;;36.55;14.82;;;5.90;99.90;;;;;;5051501;28;20037;-62
2022/11/26 08:14:13;;;;;;;29.00;14.45;;;;;;;;;;5050744;28;20367;-63
2022/11/26 08:16:39;;;;;;;32.78;14.48;;;;;;;;;;5063545;28;20048;-63
2022/11/26 08:19:07;;;;;;;32.47;14.93;;;;;;;;;;5054995;28;20024;-63
2022/11/26 08:21:33;;;;;;;30.98;14.10;;;5.70;99.90;;;;;;5061831;28;20033;-64
2022/11/26 08:23:59;;;;;;;30.85;15.32;;;6.10;99.90;;;;;;5050735;28;20033;-64
2022/11/26 08:26:26;;;;;;;37.80;15.88;;;6.20;99.90;;;;;;5050283;28;20040;-64
2022/11/26 08:28:52;;;;;;;33.65;14.93;;;;;;;;;;5049672;28;20067;-64
2022/11/26 08:31:18;;;;;;;37.90;15.13;;;6.50;99.90;;;;;;5048944;28;20029;-64
2022/11/26 08:33:44;;;;;;;34.63;15.20;;;6.40;99.90;;;;;;5050234;28;20032;-64
2022/11/26 08:36:11;;;;;;;31.15;15.48;;;6.40;99.90;;;;;;5032638;28;20490;-64
2022/11/26 08:38:37;;;;;;;30.75;14.75;;;;;;;;;;5049501;28;20083;-64
2022/11/26 08:41:09;;;;;;;34.03;15.32;;;6.40;99.90;;;;;;5032413;28;20037;-64
2022/11/26 08:43:35;;;;;;;30.67;15.20;;;;;;;;;;5053842;28;20036;-64
2022/11/26 08:46:01;;;;;;;31.75;15.85;;;;;;;;;;5043162;28;20494;-64
2022/11/26 08:48:28;;;;;;;37.00;15.75;;;;;;;;;;5005812;28;20559;-63
2022/11/26 08:50:58;;;;;;;35.78;15.15;;;;;;;;;;5031421;28;20037;-62
2022/11/26 08:53:24;;;;;;;34.03;15.32;;;6.80;99.90;;;;;;5017330;28;20038;-62
2022/11/26 08:55:50;;;;;;;34.50;14.73;;;;;;;;;;5039056;28;20528;-64
2022/11/26 08:58:16;;;;;;;31.27;13.65;;;;;;;;;;5043970;28;20123;-64
2022/11/26 09:00:43;;;;;;;28.80;12.98;;;;;;;;;;5045143;28;20041;-63
2022/11/26 09:03:09;;;;;;;27.30;14.23;;;;;;;;;;5044768;28;20406;-64
2022/11/26 09:05:35;;;;;;;34.92;13.25;;;;;;;;;;5047078;28;20058;-62
2022/11/26 09:08:00;;;;;;;31.00;15.25;;;7.30;99.90;;;;;;5049424;28;20037;-63
2022/11/26 09:10:26;;;;;;;27.95;12.07;;;;;;;;;;5049757;28;20506;-63
2022/11/26 09:12:52;;;;;;;30.83;12.48;;;;;;;;;;5040682;28;20387;-62
2022/11/26 09:15:18;;;;;;;29.85;14.48;;;;;;;;;;5040202;28;20485;-63
2022/11/26 09:17:45;;;;;;;36.40;15.38;;;;;;;;;;5114297;22;20179;-53
2022/11/26 09:20:11;;;;;;;30.67;13.32;;;;;;;;;;5046236;28;20505;-54
2022/11/26 09:22:43;;;;;;;28.27;13.27;;;;;;;;;;5046986;28;20486;-54
2022/11/26 09:25:09;;;;;;;28.17;12.55;;;;;;;;;;5046936;28;20041;-53
2022/11/26 09:27:36;;;;;;;26.58;13.40;;;;;;;;;;5017550;28;20494;-54
2022/11/26 09:30:05;;;;;;;30.13;13.15;;;;;;;;;;5035447;28;20036;-53
2022/11/26 09:32:33;;;;;;;29.23;13.15;;;;;;;;;;5037340;28;20084;-55
2022/11/26 09:34:58;;;;;;;21.77;12.15;;;7.70;99.90;;;;;;5033045;28;20060;-50
2022/11/26 09:37:26;;;;;;;32.47;13.27;;;;;;;;;;5033152;28;20111;-54
2022/11/26 09:39:53;;;;;;;22.27;12.80;;;;;;;;;;5032885;28;20044;-53
2022/11/26 09:42:36;;;;;;;32.65;16.45;;;;;;;;;;5031408;28;20115;-54
2022/11/26 09:45:22;;;;;;;35.00;13.80;;;8.50;99.90;;;;;;5034813;28;20401;-53
2022/11/26 09:47:51;;;;;;;27.48;13.73;;;;;;;;;;5029143;28;20461;-54
2022/11/26 09:50:26;;;;;;;25.60;13.00;;;;;;;;;;5040428;28;20039;-53
2022/11/26 09:53:01;;;;;;;27.95;11.90;;;;;;;;;;5053088;28;20036;-53
2022/11/26 09:55:31;;;;;;;28.80;13.35;;;8.40;99.90;;;;;;5054521;28;20398;-54
2022/11/26 09:58:32;;;;;;;31.50;12.07;;;;;;;;;;5051939;28;20032;-54
2022/11/26 10:00:59;;;;;;;23.85;11.65;;;;;;;;;;5048405;28;20080;-54
2022/11/26 10:03:32;;;;;;;29.27;13.43;;;;;;;;;;5052614;28;20039;-54
2022/11/26 10:06:05;;;;;;;26.15;12.77;;;;;;;;;;5054752;28;20098;-54
2022/11/26 10:08:55;;;;;;;26.15;12.65;;;8.20;99.90;;;;;;5060504;28;20037;-54
2022/11/26 10:11:30;;;;;;;29.15;13.40;;;;;;;;;;5047661;28;20041;-53
2022/11/26 10:14:05;;;;;;;33.33;14.10;;;;;;;;;;5044171;28;20428;-55
2022/11/26 10:16:40;;;;;;;31.90;11.70;;;;;;;;;;5057743;28;20040;-53
2022/11/26 10:19:16;;;;;;;24.08;11.80;;;;;;;;;;5055810;28;20090;-51
2022/11/26 10:21:56;;;;;;;24.95;13.23;;;8.60;99.90;;;;;;5059649;28;20037;-55
2022/11/26 10:24:33;;;;;;;25.35;12.15;;;8.80;99.90;;;;;;5056331;28;20028;-54
2022/11/26 10:27:08;;;;;;;22.58;11.65;;;8.30;99.90;;;;;;5052167;28;20072;-52
2022/11/26 10:29:40;;;;;;;25.17;11.70;;;8.80;99.90;;;;;;5057312;28;20495;-55
2022/11/26 10:32:22;;;;;;;27.85;10.98;;;9.10;99.90;;;;;;5049028;28;20068;-55
2022/11/26 10:34:51;;;;;;;20.83;11.85;;;9.10;99.90;;;;;;5052628;28;20048;-54
2022/11/26 10:37:19;;;;;;;27.52;12.27;;;9.30;99.90;;;;;;5056328;28;20125;-53
2022/11/26 10:39:45;;;;;;;22.80;11.48;;;;;;;;;;5053172;28;20069;-53
2022/11/26 10:42:41;;;;;;;24.85;10.32;;;8.70;99.90;;;;;;5051831;28;20037;-53
2022/11/26 10:45:18;;;;;;;31.83;13.02;;;;;;;;;;5052809;28;20111;-54
2022/11/26 10:47:44;;;;;;;23.05;11.68;;;9.00;99.90;;;;;;5054211;28;20511;-54
2022/11/26 10:50:10;;;;;;;23.17;11.07;;;;;;;;;;5043862;28;20082;-52
2022/11/26 10:52:38;;;;;;;31.85;11.50;;;;;;;;;;5051503;28;20045;-54
2022/11/26 10:55:19;;;;;;;25.50;10.85;;;9.20;99.90;;;;;;5039314;28;20067;-53
2022/11/26 10:57:50;;;;;;;20.77;11.07;;;;;;;;;;5054047;28;20075;-53
2022/11/26 11:00:35;;;;;;;26.33;11.30;;;9.30;99.90;;;;;;5033766;28;20521;-54
2022/11/26 11:03:01;;;;;;;25.23;11.10;;;;;;;;;;5034467;28;20067;-54
2022/11/26 11:05:28;;;;;;;25.08;11.07;;;;;;;;;;5042552;28;20048;-52
2022/11/26 11:07:54;;;;;;;23.88;10.63;;;;;;;;;;5048655;28;20049;-54
2022/11/26 11:10:23;;;;;;;28.80;10.48;;;;;;;;;;5052227;28;20111;-54
2022/11/26 11:13:03;;;;;;;36.35;13.98;;;9.30;99.90;;;;;;5051913;28;20059;-54
2022/11/26 11:15:30;;;;;;;22.90;10.18;;;;;;;;;;5033090;28;20045;-54
2022/11/26 11:18:05;;;;;;;23.80;11.35;;;9.10;99.90;;;;;;5050234;28;20580;-53
2022/11/26 11:20:36;;;;;;;25.17;9.95;;;;;;;;;;5068800;28;20479;-53
2022/11/26 11:23:02;;;;;;;24.92;10.20;;;;;;;;;;5055797;28;20091;-53
2022/11/26 11:25:31;;;;;;;28.35;11.63;;;;;;;;;;5051764;28;20112;-53
2022/11/26 11:28:02;;;;;;;20.25;8.85;;;;;;;;;;5033753;28;20044;-53
2022/11/26 11:30:31;;;;;;;23.80;10.38;;;;;;;;;;5049802;28;20044;-54
2022/11/26 11:33:08;;;;;;;24.23;10.95;;;;;;;;;;5052202;28;20272;-54
2022/11/26 11:35:34;;;;;;;27.50;11.15;;;;;;;;;;5051835;28;20072;-52
2022/11/26 11:38:00;;;;;;;22.65;9.20;;;;;;;;;;5051632;28;20037;-54
2022/11/26 11:40:29;;;;;;;22.15;9.90;;;;;;;;;;5033884;28;20079;-55
2022/11/26 11:43:03;;;;;;;21.58;9.82;;;9.80;99.90;;;;;;5050462;28;20044;-54
2022/11/26 11:45:33;;;;;;;24.77;10.05;;;;;;;;;;5059630;28;20048;-54
2022/11/26 11:48:04;;;;;;;22.83;10.32;;;;;;;;;;5056696;28;20048;-52
2022/11/26 11:50:36;;;;;;;24.38;9.75;;;9.30;99.90;;;;;;5051629;28;20079;-50
2022/11/26 11:53:17;;;;;;;22.40;10.23;;;;;;;;;;5044854;28;20037;-54
2022/11/26 11:55:53;;;;;;;22.98;9.55;;;;;;;;;;5051432;28;20433;-54
2022/11/26 11:58:19;;;;;;;23.00;9.57;;;;;;;;;;5050262;28;20033;-54
2022/11/26 12:00:44;;;;;;;19.58;8.70;;;9.80;99.90;;;;;;5051328;28;20043;-53
2022/11/26 12:03:20;;;;;;;25.83;8.50;;;;;;;;;;5056853;28;20079;-54
2022/11/26 12:06:04;;;;;;;16.63;8.50;;;;;;;;;;5068586;28;20409;-53
2022/11/26 12:08:39;;;;;;;24.00;9.25;;;10.00;99.90;;;;;;5047764;28;20043;-54
2022/11/26 12:11:15;;;;;;;22.10;8.98;;;;;;;;;;5055006;28;20040;-54
2022/11/26 12:13:46;;;;;;;23.52;8.65;;;;;;;;;;5061019;28;20037;-54
2022/11/26 12:16:13;;;;;;;20.65;8.60;;;;;;;;;;5049593;28;20116;-54
2022/11/26 12:18:45;;;;;;;24.75;10.07;;;;;;;;;;5032782;28;20632;-54
2022/11/26 12:21:13;;;;;;;21.02;8.07;;;;;;;;;;5050669;28;20402;-53
2022/11/26 12:23:48;;;;;;;23.15;8.73;;;;;;;;;;5036576;28;20124;-54
2022/11/26 12:26:53;;;;;;;21.50;8.68;;;;;;;;;;5057060;28;20044;-52
2022/11/26 12:29:29;;;;;;;18.83;7.70;;;10.80;99.90;;;;;;4984485;28;20050;-54
2022/11/26 12:32:11;;;;;;;22.83;9.88;;;10.60;99.90;;;;;;4989116;28;20197;-52
2022/11/26 12:34:42;;;;;;;25.73;9.20;;;;;;;;;;5030091;28;20494;-52
2022/11/26 12:37:19;;;;;;;24.15;9.88;;;10.20;99.90;;;;;;5058399;28;20036;-54
2022/11/26 12:39:49;;;;;;;20.23;8.52;;;10.20;99.90;;;;;;5050669;28;20041;-54
2022/11/26 12:42:34;;;;;;;21.20;8.68;;;;;;;;;;5050617;28;20083;-55
2022/11/26 12:45:06;;;;;;;22.92;8.30;;;;;;;;;;5025667;28;20041;-52
2022/11/26 12:47:45;;;;;;;20.05;8.63;;;;;;;;;;5064637;28;20037;-54
2022/11/26 12:50:26;;;;;;;22.45;9.23;;;10.10;99.90;;;;;;5059106;28;20090;-52
2022/11/26 12:53:24;;;;;;;21.23;9.25;;;10.50;99.90;;;;;;5053694;28;20033;-55
2022/11/26 12:56:10;;;;;;;25.40;8.75;;;9.90;99.90;;;;;;5064097;28;20040;-54
2022/11/26 12:58:55;;;;;;;26.38;9.32;;;;;;;;;;5059703;28;20051;-53
2022/11/26 13:01:22;;;;;;;21.50;8.90;;;10.10;99.90;;;;;;5062185;28;20036;-54
2022/11/26 13:03:50;;;;;;;21.42;8.90;;;10.10;99.90;;;;;;5050310;28;20045;-56
2022/11/26 13:06:24;;;;;;;26.40;10.20;;;10.10;99.90;;;;;;5035041;28;20037;-52
2022/11/26 13:09:08;;;;;;;22.38;9.90;;;9.60;99.90;;;;;;5054127;28;20040;-54
2022/11/26 13:11:39;;;;;;;26.15;9.43;;;;;;;;;;5033205;28;20049;-55
2022/11/26 13:14:14;;;;;;;20.23;8.77;;;9.90;99.90;;;;;;5031150;28;20506;-54
2022/11/26 13:16:49;;;;;;;26.15;9.48;;;9.40;99.90;;;;;;5049745;28;20052;-54
2022/11/26 13:19:26;;;;;;;23.40;9.82;;;10.30;99.90;;;;;;5031641;28;20056;-53
2022/11/26 13:22:21;;;;;;;25.02;9.18;;;;;;;;;;5037952;28;20382;-55
2022/11/26 13:25:05;;;;;;;27.08;9.00;;;9.90;99.90;;;;;;5033761;28;20102;-53
2022/11/26 13:27:45;;;;;;;26.90;9.02;;;9.80;99.90;;;;;;5058134;28;20507;-54
2022/11/26 13:30:22;;;;;;;30.08;10.43;;;9.70;99.90;;;;;;5060000;28;20064;-53
2022/11/26 13:32:48;;;;;;;25.73;10.13;;;;;;;;;;5049947;28;20045;-53
2022/11/26 13:35:20;;;;;;;23.35;10.95;;;;;;;;;;5047505;28;20077;-54
2022/11/26 13:37:53;;;;;;;23.85;10.13;;;;;;;;;;5042862;28;20114;-54
2022/11/26 13:40:25;;;;;;;21.33;10.40;;;;;;;;;;5049180;28;20204;-53
2022/11/26 13:43:03;;;;;;;23.02;11.55;;;;;;;;;;5032913;28;20033;-54
2022/11/26 13:45:42;;;;;;;19.90;9.45;;;;;;;;;;5031168;28;20187;-54
2022/11/26 13:48:12;;;;;;;21.92;10.95;;;;;;;;;;5031511;28;20522;-55
2022/11/26 13:50:48;;;;;;;22.10;9.60;;;9.00;99.90;;;;;;5033980;28;20100;-54
2022/11/26 13:53:20;;;;;;;20.85;10.43;;;;;;;;;;5031502;28;20041;-55
2022/11/26 13:55:58;;;;;;;18.55;10.02;;;;;;;;;;5037806;28;20117;-53
2022/11/26 13:58:57;;;;;;;21.02;9.52;;;9.40;99.90;;;;;;5030463;28;20033;-54